Time;durP1;ratioP1;P1;durP2;ratioP2;P2;SDS_P1;SDS_P2;PMS_P1;PMS_P2;Temp;Humidity;BMP_temperature;BMP_pressure;BME280_temperature;BME280_humidity;BME280_pressure;Samples;Min_cycle;Max_cycle;Signal;HPM_P1;HPM_P2
2022/12/06 00:02:20;;;;;;;7.50;3.05;;;;;;;;;;4956827;28;20058;-83
2022/12/06 00:04:46;;;;;;;5.35;2.72;;;;;;;;;;4956924;28;20436;-84
2022/12/06 00:07:13;;;;;;;5.55;2.75;;;;;;;;;;4955130;29;20472;-84
2022/12/06 00:09:39;;;;;;;3.92;2.75;;;;;;;;;;4956480;29;20047;-83
2022/12/06 00:12:06;;;;;;;4.15;2.45;;;;;;;;;;4955853;29;20055;-82
2022/12/06 00:14:32;;;;;;;4.25;2.53;;;;;;;;;;4970061;28;20055;-81
2022/12/06 00:16:58;;;;;;;4.88;2.88;;;;;;;;;;4957760;28;20058;-81
2022/12/06 00:19:28;;;;;;;4.13;2.17;;;;;;;;;;4957590;28;20055;-82
2022/12/06 00:21:54;;;;;;;4.07;2.47;;;;;;;;;;4964963;28;20047;-81
2022/12/06 00:24:21;;;;;;;3.50;2.05;;;;;;;;;;4970878;28;20052;-79
2022/12/06 00:26:48;;;;;;;4.05;2.13;;;;;;;;;;4956950;29;20047;-80
2022/12/06 00:29:20;;;;;;;3.85;2.35;;;;;;;;;;4956072;29;20121;-81
2022/12/06 00:31:47;;;;;;;4.35;2.13;;;;;;;;;;4956235;28;20083;-81
2022/12/06 00:34:13;;;;;;;3.38;2.05;;;;;;;;;;4955848;29;20058;-82
2022/12/06 00:36:40;;;;;;;4.47;1.98;;;;;;;;;;4956159;28;20054;-82
2022/12/06 00:39:14;;;;;;;3.65;2.10;;;;;;;;;;4955493;29;20420;-81
2022/12/06 00:41:41;;;;;;;5.57;2.20;;;;;;;;;;4954553;29;20047;-81
2022/12/06 00:44:08;;;;;;;3.25;2.03;;;;;;;;;;4954697;28;20070;-81
2022/12/06 00:46:34;;;;;;;2.75;1.70;;;;;;;;;;4956329;28;20125;-82
2022/12/06 00:49:01;;;;;;;2.67;1.73;;;;;;;;;;4954501;29;20138;-80
2022/12/06 00:51:29;;;;;;;5.68;1.90;;;;;;;;;;4955652;28;20065;-81
2022/12/06 00:53:55;;;;;;;5.60;1.88;;;;;;;;;;4954923;29;20051;-80
2022/12/06 00:56:22;;;;;;;3.35;1.80;;;;;;;;;;4955693;29;20143;-81
2022/12/06 00:58:48;;;;;;;4.82;1.80;;;;;;;;;;4953912;28;20055;-81
2022/12/06 01:01:16;;;;;;;3.10;1.80;;;;;;;;;;4954203;28;20683;-81
2022/12/06 01:03:44;;;;;;;3.45;1.80;;;;;;;;;;4955815;28;20078;-82
2022/12/06 01:06:14;;;;;;;2.88;1.80;;;;;;;;;;4955828;29;20047;-82
2022/12/06 01:08:41;;;;;;;1.77;1.30;;;;;;;;;;4955429;28;20047;-82
2022/12/06 01:11:08;;;;;;;2.78;1.52;;;;;;;;;;4955979;28;20073;-82
2022/12/06 01:13:34;;;;;;;4.05;1.65;;;;;;;;;;4954171;28;20075;-79
2022/12/06 01:16:08;;;;;;;2.40;1.40;;;;;;;;;;4955483;28;20053;-80
2022/12/06 01:18:34;;;;;;;3.67;1.80;;;;;;;;;;4955966;28;20057;-82
2022/12/06 01:21:08;;;;;;;2.78;1.90;;;;;;;;;;4956523;28;20437;-81
2022/12/06 01:23:35;;;;;;;3.28;1.63;;;;;;;;;;4947095;28;20061;-82
2022/12/06 01:26:02;;;;;;;3.10;1.90;;;;;;;;;;4940919;29;20141;-82
2022/12/06 01:28:29;;;;;;;4.90;1.83;;;;;;;;;;4939981;29;20063;-82
2022/12/06 01:30:55;;;;;;;3.70;2.00;;;;;;;;;;4935984;29;20497;-82
2022/12/06 01:33:21;;;;;;;3.22;1.95;;;;;;;;;;4936359;29;20107;-82
2022/12/06 01:35:48;;;;;;;5.97;2.00;;;;;;;;;;4941165;29;20151;-81
2022/12/06 01:38:14;;;;;;;4.38;1.98;;;;;;;;;;4940581;29;20055;-82
2022/12/06 01:40:45;;;;;;;3.80;1.92;;;;;;;;;;4942439;29;20492;-83
2022/12/06 01:43:30;;;;;;;4.20;2.08;;;;;;;;;;4940628;29;20139;-81
2022/12/06 01:45:58;;;;;;;3.47;2.00;;;;;;;;;;4937478;29;20054;-82
2022/12/06 01:48:25;;;;;;;3.00;1.95;;;;;;;;;;4933955;29;20512;-81
2022/12/06 01:50:54;;;;;;;3.28;2.00;;;;;;;;;;4933546;29;20508;-81
2022/12/06 01:53:21;;;;;;;3.45;1.98;;;;;;;;;;4932340;29;20056;-81
2022/12/06 01:55:51;;;;;;;4.15;2.28;;;;;;;;;;4934526;29;20147;-81
2022/12/06 01:58:22;;;;;;;4.40;2.33;;;;;;;;;;4933032;29;20059;-82
2022/12/06 02:00:48;;;;;;;4.32;1.83;;;;;;;;;;4934335;29;20058;-81
2022/12/06 02:03:18;;;;;;;3.60;2.13;;;;;;;;;;4932146;29;20422;-81
2022/12/06 02:05:44;;;;;;;6.13;2.28;;;;;;;;;;4933420;29;20115;-81
2022/12/06 02:08:12;;;;;;;3.45;2.13;;;;;;;;;;4934279;29;20048;-83
2022/12/06 02:10:38;;;;;;;4.07;2.33;;;;;;;;;;4934320;29;20520;-81
2022/12/06 02:13:05;;;;;;;4.07;2.28;;;;;;;;;;4932698;29;20055;-82
2022/12/06 02:15:34;;;;;;;3.45;1.90;;;;;;;;;;4933282;29;20060;-81
2022/12/06 02:18:07;;;;;;;4.22;2.40;;;;;;;;;;4941523;28;20493;-81
2022/12/06 02:20:40;;;;;;;5.32;2.88;;;;;;;;;;4951889;28;20048;-82
2022/12/06 02:23:09;;;;;;;4.43;2.75;;;;;;;;;;4951808;28;20055;-80
2022/12/06 02:26:00;;;;;;;4.65;2.83;;;;;;;;;;4945936;29;20059;-81
2022/12/06 02:28:36;;;;;;;4.75;2.67;;;;;;;;;;4952798;29;20047;-80
2022/12/06 02:31:05;;;;;;;4.97;2.65;;;;;;;;;;4952342;28;20051;-81
2022/12/06 02:33:35;;;;;;;4.25;2.40;;;;;;;;;;4952996;28;20051;-81
2022/12/06 02:36:14;;;;;;;6.53;3.08;;;;;;;;;;4955443;28;20047;-83
2022/12/06 02:38:56;;;;;;;3.88;2.20;;;;;;;;;;4954959;29;20062;-82
2022/12/06 02:41:34;;;;;;;5.75;2.50;;;;;;;;;;4955247;28;20050;-80
2022/12/06 02:44:02;;;;;;;5.55;2.78;;;;;;;;;;4953570;28;20062;-81
2022/12/06 02:46:31;;;;;;;4.88;2.80;;;;;;;;;;4957235;28;20063;-82
2022/12/06 02:48:58;;;;;;;5.65;2.70;;;;;;;;;;4959384;28;20547;-81
2022/12/06 02:51:26;;;;;;;5.03;3.10;;;;;;;;;;4971245;28;20039;-84
2022/12/06 02:53:55;;;;;;;5.05;2.90;;;;;;;;;;4969547;28;20063;-83
2022/12/06 02:56:21;;;;;;;7.72;3.00;;;;;;;;;;4967747;28;20035;-82
2022/12/06 02:58:48;;;;;;;5.57;2.95;;;;;;;;;;4973933;29;20064;-81
2022/12/06 03:01:21;;;;;;;4.97;2.92;;;;;;;;;;4974593;28;20051;-83
2022/12/06 03:03:53;;;;;;;5.82;3.00;;;;;;;;;;4973755;28;20039;-82
2022/12/06 03:06:22;;;;;;;7.10;2.80;;;;;;;;;;4973257;28;20070;-82
2022/12/06 03:09:21;;;;;;;5.88;2.85;;;;;;;;;;4965776;28;20035;-82
2022/12/06 03:11:54;;;;;;;6.50;2.95;;;;;;;;;;4945681;28;20083;-82
2022/12/06 03:14:22;;;;;;;5.47;2.95;;;;;;;;;;4965939;28;20054;-83
2022/12/06 03:16:52;;;;;;;6.93;3.50;;;;;;;;;;4967800;28;20130;-82
2022/12/06 03:19:20;;;;;;;5.55;3.13;;;;;;;;;;4962040;28;20048;-81
2022/12/06 03:21:52;;;;;;;8.15;3.25;;;;;;;;;;4954309;28;20077;-81
2022/12/06 03:24:20;;;;;;;8.10;3.92;;;;;;;;;;4945679;29;20067;-81
2022/12/06 03:26:47;;;;;;;6.43;3.33;;;;;;;;;;4957582;29;20051;-81
2022/12/06 03:29:15;;;;;;;5.97;3.60;;;;;;;;;;4952125;28;20054;-81
2022/12/06 03:31:43;;;;;;;6.60;3.20;;;;;;;;;;4955283;28;20141;-81
2022/12/06 03:34:12;;;;;;;6.00;3.38;;;;;;;;;;4958274;29;20047;-80
2022/12/06 03:36:40;;;;;;;6.70;3.72;;;;;;;;;;4957493;29;20058;-82
2022/12/06 03:39:07;;;;;;;4.70;2.97;;;;;;;;;;4958296;29;20063;-81
2022/12/06 03:41:47;;;;;;;5.85;3.40;;;;;;;;;;4957816;28;20097;-83
2022/12/06 03:44:13;;;;;;;5.55;3.50;;;;;;;;;;4956072;29;20047;-82
2022/12/06 03:46:42;;;;;;;5.45;3.28;;;;;;;;;;4957758;29;20057;-81
2022/12/06 03:49:30;;;;;;;5.82;3.45;;;;;;;;;;4957295;29;20063;-81
2022/12/06 03:51:56;;;;;;;6.47;3.47;;;;;;;;;;4956905;29;20166;-83
2022/12/06 03:54:23;;;;;;;6.75;3.70;;;;;;;;;;4954505;28;20051;-81
2022/12/06 03:56:49;;;;;;;7.95;3.40;;;;;;;;;;4955995;28;20134;-83
2022/12/06 03:59:16;;;;;;;6.65;3.50;;;;;;;;;;4956419;28;20055;-81
2022/12/06 04:01:42;;;;;;;6.25;3.25;;;;;;;;;;4956427;29;20062;-81
2022/12/06 04:04:09;;;;;;;5.28;3.25;;;;;;;;;;4957029;28;20106;-82
2022/12/06 04:06:35;;;;;;;5.20;3.10;;;;;;;;;;4957165;28;20047;-81
2022/12/06 04:11:49;;;;;;;6.35;3.33;;;;;;;;;;4956906;28;20086;-81
2022/12/06 04:14:16;;;;;;;6.80;3.47;;;;;;;;;;4954803;29;20132;-81
2022/12/06 04:19:27;;;;;;;5.50;3.65;;;;;;;;;;4956948;28;20093;-80
2022/12/06 04:24:39;;;;;;;8.73;4.15;;;;;;;;;;4940218;29;20055;-79
2022/12/06 04:40:50;;;;;;;8.88;4.25;;;;;;;;;;4956762;28;20086;-81
2022/12/06 04:46:01;;;;;;;7.97;4.13;;;;;;;;;;4956417;28;20051;-81
2022/12/06 04:48:27;;;;;;;6.78;4.20;;;;;;;;;;4956770;29;20130;-82
2022/12/06 04:50:54;;;;;;;8.63;4.43;;;;;;;;;;4957234;28;20070;-80
2022/12/06 04:53:20;;;;;;;11.15;4.57;;;;;;;;;;4956323;28;20085;-82
2022/12/06 04:55:47;;;;;;;8.68;4.38;;;;;;;;;;4956660;28;20059;-82
2022/12/06 04:58:13;;;;;;;11.25;4.80;;;;;;;;;;4972030;28;20057;-83
2022/12/06 05:00:43;;;;;;;11.27;5.25;;;;;;;;;;4956344;29;20215;-81
2022/12/06 05:03:10;;;;;;;7.70;4.50;;;;;;;;;;4949282;29;20083;-80
2022/12/06 05:05:37;;;;;;;7.82;4.82;;;;;;;;;;4952940;29;20073;-80
2022/12/06 05:08:03;;;;;;;9.32;5.10;;;;;;;;;;4937952;29;20055;-81
2022/12/06 05:10:30;;;;;;;10.07;5.40;;;;;;;;;;4938219;29;20055;-80
2022/12/06 05:12:57;;;;;;;8.93;4.85;;;;;;;;;;4937051;29;20555;-80
2022/12/06 05:15:23;;;;;;;8.82;4.93;;;;;;;;;;4952289;29;20048;-82
2022/12/06 05:17:54;;;;;;;11.43;4.93;;;;;;;;;;4937446;29;20062;-81
2022/12/06 05:20:20;;;;;;;10.70;5.55;;;;;;;;;;4937646;29;20052;-81
2022/12/06 05:22:47;;;;;;;11.18;5.65;;;;;;;;;;4937249;29;20052;-82
2022/12/06 05:25:15;;;;;;;10.25;5.80;;;;;;;;;;4943843;29;20059;-83
2022/12/06 05:27:42;;;;;;;10.63;6.18;;;;;;;;;;4937635;29;20054;-83
2022/12/06 05:30:09;;;;;;;12.15;6.22;;;;;;;;;;4952189;29;20040;-82
2022/12/06 05:32:36;;;;;;;11.20;5.88;;;;;;;;;;4949054;29;20485;-81
2022/12/06 05:35:04;;;;;;;10.20;5.55;;;;;;;;;;4935512;29;20080;-81
2022/12/06 05:37:31;;;;;;;13.10;6.38;;;;;;;;;;4935138;29;20058;-81
2022/12/06 05:39:57;;;;;;;14.85;6.53;;;;;;;;;;4934932;29;20048;-81
2022/12/06 05:42:25;;;;;;;14.73;6.35;;;;;;;;;;4941361;29;20129;-81
2022/12/06 05:44:51;;;;;;;12.93;6.38;;;;;;;;;;4935132;29;20055;-82
2022/12/06 05:47:18;;;;;;;10.70;5.93;;;;;;;;;;4934697;29;20047;-83
2022/12/06 05:49:44;;;;;;;12.75;6.38;;;;;;;;;;4935016;29;20048;-82
2022/12/06 05:52:10;;;;;;;13.85;6.53;;;;;;;;;;4939462;29;20056;-83
2022/12/06 05:54:37;;;;;;;13.90;6.72;;;;;;;;;;4950424;28;20119;-82
2022/12/06 05:57:03;;;;;;;15.25;6.63;;;;;;;;;;4936327;29;20056;-81
2022/12/06 05:59:29;;;;;;;15.07;6.60;;;;;;;;;;4942842;29;20051;-81
2022/12/06 06:01:56;;;;;;;15.60;6.43;;;;;;;;;;4954238;28;20043;-80
2022/12/06 06:04:22;;;;;;;13.57;6.57;;;;;;;;;;4969354;28;20047;-82
2022/12/06 06:06:50;;;;;;;13.32;6.28;;;;;;;;;;4954711;28;20051;-81
2022/12/06 06:09:16;;;;;;;14.85;6.13;;;;;;;;;;4954140;28;20073;-80
2022/12/06 06:11:44;;;;;;;17.02;6.63;;;;;;;;;;4954382;28;20250;-82
2022/12/06 06:14:10;;;;;;;15.27;6.43;;;;;;;;;;4953529;28;20051;-82
2022/12/06 06:16:37;;;;;;;16.73;6.78;;;;;;;;;;4955322;28;20082;-81
2022/12/06 06:19:03;;;;;;;16.17;7.75;;;;;;;;;;4955874;28;20099;-82
2022/12/06 06:21:29;;;;;;;17.85;6.55;;;;;;;;;;4960896;28;20390;-81
2022/12/06 06:23:56;;;;;;;14.50;7.57;;;;;;;;;;4950114;28;20044;-81
2022/12/06 06:26:22;;;;;;;15.80;6.93;;;;;;;;;;4955248;29;20047;-81
2022/12/06 06:28:49;;;;;;;16.10;6.95;;;;;;;;;;4952662;29;20384;-81
2022/12/06 06:31:15;;;;;;;14.25;6.50;;;;;;;;;;4952696;28;20054;-80
2022/12/06 06:33:42;;;;;;;13.00;6.57;;;;;;;;;;4952264;29;20216;-81
2022/12/06 06:36:08;;;;;;;15.57;6.95;;;;;;;;;;4951919;28;20540;-80
2022/12/06 06:38:35;;;;;;;14.10;6.55;;;;;;;;;;4952686;29;20420;-80
2022/12/06 06:41:02;;;;;;;12.05;6.00;;;;;;;;;;4953039;29;20699;-82
2022/12/06 06:43:29;;;;;;;15.07;6.68;;;;;;;;;;4949780;29;20051;-81
2022/12/06 06:45:57;;;;;;;15.98;6.53;;;;;;;;;;4952316;28;20051;-82
2022/12/06 06:48:24;;;;;;;13.38;6.10;;;;;;;;;;4952338;29;20043;-80
2022/12/06 06:50:51;;;;;;;11.20;5.43;;;;;;;;;;4951592;28;20053;-81
2022/12/06 06:53:25;;;;;;;17.40;7.65;;;;;;;;;;4950455;29;20114;-81
2022/12/06 06:55:52;;;;;;;14.07;6.88;;;;;;;;;;4952101;29;20051;-81
2022/12/06 06:58:19;;;;;;;13.35;6.45;;;;;;;;;;4950787;29;20082;-81
2022/12/06 07:00:45;;;;;;;13.95;6.80;;;;;;;;;;4952519;29;20503;-82
2022/12/06 07:03:13;;;;;;;13.20;6.85;;;;;;;;;;4963426;29;20061;-83
2022/12/06 07:05:42;;;;;;;14.00;6.70;;;;;;;;;;4974580;28;20043;-82
2022/12/06 07:08:09;;;;;;;18.00;7.45;;;;;;;;;;4970625;28;20514;-82
2022/12/06 07:10:35;;;;;;;14.25;7.03;;;;;;;;;;4962177;29;20057;-83
2022/12/06 07:13:02;;;;;;;15.40;5.88;;;;;;;;;;4956371;29;20150;-82
2022/12/06 07:15:28;;;;;;;11.15;5.35;;;;;;;;;;4956012;29;20058;-82
2022/12/06 07:17:54;;;;;;;11.20;4.88;;;;;;;;;;4958590;29;20055;-82
2022/12/06 07:20:21;;;;;;;11.63;5.82;;;;;;;;;;4958811;28;20082;-83
2022/12/06 07:22:47;;;;;;;13.35;6.25;;;;;;;;;;4956551;28;20055;-81
2022/12/06 07:25:13;;;;;;;12.70;6.30;;;;;;;;;;4948605;28;20320;-79
2022/12/06 07:27:40;;;;;;;11.60;5.63;;;;;;;;;;4953886;28;20055;-81
2022/12/06 07:30:07;;;;;;;11.63;5.93;;;;;;;;;;4953490;29;20047;-81
2022/12/06 07:32:35;;;;;;;11.80;5.75;;;;;;;;;;4954676;29;20055;-82
2022/12/06 07:35:02;;;;;;;13.48;6.13;;;;;;;;;;4955223;28;20051;-80
2022/12/06 07:37:29;;;;;;;8.35;4.63;;;;;;;;;;4955905;28;20051;-82
2022/12/06 07:39:55;;;;;;;14.45;5.43;;;;;;;;;;4955069;28;20070;-81
2022/12/06 07:45:07;;;;;;;13.55;6.70;;;;;;;;;;4956305;28;20055;-83
2022/12/06 07:47:35;;;;;;;15.60;6.88;;;;;;;;;;4957144;29;20047;-82
2022/12/06 07:50:02;;;;;;;15.68;7.15;;;;;;;;;;4960906;28;20058;-83
2022/12/06 07:52:29;;;;;;;16.30;7.15;;;;;;;;;;4966031;29;20075;-83
2022/12/06 07:54:56;;;;;;;12.95;6.63;;;;;;;;;;4974063;28;20042;-82
2022/12/06 07:57:22;;;;;;;15.73;7.60;;;;;;;;;;4970746;29;20077;-81
2022/12/06 07:59:48;;;;;;;21.15;8.38;;;;;;;;;;4959257;29;20047;-83
2022/12/06 08:02:19;;;;;;;18.73;8.35;;;;;;;;;;4957431;28;20074;-83
2022/12/06 08:04:46;;;;;;;18.10;8.40;;;;;;;;;;4957008;29;20062;-83
2022/12/06 08:07:13;;;;;;;16.58;8.20;;;;;;;;;;4957648;29;20047;-83
2022/12/06 08:09:40;;;;;;;18.70;7.88;;;;;;;;;;4955062;29;20055;-83
2022/12/06 08:12:07;;;;;;;16.10;8.20;;;;;;;;;;4955196;29;20055;-83
2022/12/06 08:14:33;;;;;;;13.25;7.05;;;;;;;;;;4956056;29;20162;-83
2022/12/06 08:17:00;;;;;;;17.90;8.23;;;;;;;;;;4957885;29;20536;-81
2022/12/06 08:19:26;;;;;;;19.25;8.95;;;;;;;;;;4954071;28;20062;-80
2022/12/06 08:21:53;;;;;;;18.35;8.77;;;;;;;;;;4954801;28;20067;-81
2022/12/06 08:24:19;;;;;;;15.45;7.93;;;;;;;;;;4945559;29;20052;-82
2022/12/06 08:26:46;;;;;;;14.82;8.30;;;;;;;;;;4955449;28;20050;-83
2022/12/06 08:29:12;;;;;;;19.40;8.90;;;;;;;;;;4954521;29;20051;-82
2022/12/06 08:31:39;;;;;;;23.60;9.30;;;;;;;;;;4955003;29;20048;-84
2022/12/06 08:34:06;;;;;;;17.38;9.20;;;;;;;;;;4954857;28;20062;-83
2022/12/06 08:36:33;;;;;;;19.42;9.00;;;;;;;;;;4954649;28;20055;-83
2022/12/06 08:38:59;;;;;;;19.70;9.25;;;;;;;;;;4954374;28;20051;-82
2022/12/06 08:44:11;;;;;;;17.98;9.00;;;;;;;;;;4954423;28;20055;-81
2022/12/06 08:46:38;;;;;;;14.90;8.15;;;;;;;;;;4955567;29;20161;-82
2022/12/06 08:49:04;;;;;;;17.00;8.77;;;;;;;;;;4955553;28;20051;-82
2022/12/06 08:51:34;;;;;;;18.80;8.00;;;;;;;;;;4954867;28;20062;-83
2022/12/06 08:54:00;;;;;;;15.23;8.55;;;;;;;;;;4954525;29;20063;-83
2022/12/06 08:56:27;;;;;;;17.20;8.57;;;;;;;;;;4955027;28;20491;-82
2022/12/06 08:58:54;;;;;;;18.30;8.75;;;;;;;;;;4954476;29;20058;-82
2022/12/06 09:01:30;;;;;;;16.00;8.40;;;;;;;;;;4955754;29;20062;-82
2022/12/06 09:04:04;;;;;;;21.92;9.43;;;;;;;;;;4953399;29;20393;-83
2022/12/06 09:06:30;;;;;;;19.02;9.95;;;;;;;;;;4955738;28;20130;-82
2022/12/06 09:08:57;;;;;;;20.38;9.82;;;;;;;;;;4955299;28;20047;-82
2022/12/06 09:11:24;;;;;;;19.85;9.35;;;;;;;;;;4955181;29;20484;-82
2022/12/06 09:13:51;;;;;;;19.35;9.45;;;;;;;;;;4953057;28;20068;-82
2022/12/06 09:16:19;;;;;;;18.55;9.20;;;;;;;;;;4959927;29;20054;-83
2022/12/06 09:18:46;;;;;;;20.20;9.63;;;;;;;;;;4970571;29;20061;-83
2022/12/06 09:21:14;;;;;;;19.70;9.27;;;;;;;;;;4969250;29;20057;-83
2022/12/06 09:23:40;;;;;;;21.85;9.70;;;;;;;;;;4962922;28;20047;-82
2022/12/06 09:26:07;;;;;;;18.40;9.35;;;;;;;;;;4961889;29;20047;-82
2022/12/06 09:28:34;;;;;;;18.83;9.43;;;;;;;;;;4955573;29;20047;-82
2022/12/06 09:31:01;;;;;;;18.40;9.65;;;;;;;;;;4955671;28;20057;-81
2022/12/06 09:33:28;;;;;;;20.17;9.20;;;;;;;;;;4956185;29;20047;-82
2022/12/06 09:35:54;;;;;;;17.02;9.20;;;;;;;;;;4955606;29;20138;-82
2022/12/06 09:38:22;;;;;;;17.17;8.65;;;;;;;;;;4954468;28;20066;-82
2022/12/06 09:40:55;;;;;;;16.95;8.20;;;;;;;;;;4956394;29;20047;-81
2022/12/06 09:43:31;;;;;;;15.57;8.45;;;;;;;;;;4954514;28;20279;-81
2022/12/06 09:46:00;;;;;;;18.77;8.23;;;;;;;;;;4955988;29;20058;-82
2022/12/06 09:48:52;;;;;;;18.17;8.15;;;;;;;;;;4954120;29;20101;-80
2022/12/06 09:51:45;;;;;;;18.05;8.80;;;;;;;;;;4953800;29;20066;-82
2022/12/06 09:54:32;;;;;;;22.33;9.63;;;;;;;;;;4951145;29;20051;-81
2022/12/06 09:57:07;;;;;;;18.42;9.20;;;;;;;;;;4951624;29;20059;-80
2022/12/06 09:59:39;;;;;;;14.40;6.22;;;;;;;;;;4951548;28;20051;-81
2022/12/06 10:02:15;;;;;;;17.35;9.10;;;;;;;;;;4952194;29;20066;-81
2022/12/06 10:04:44;;;;;;;16.73;8.65;;;;;;;;;;4952310;28;20422;-80
2022/12/06 10:07:11;;;;;;;16.45;8.85;;;;;;;;;;4957145;29;20054;-83
2022/12/06 10:09:37;;;;;;;19.85;8.93;;;;;;;;;;4971584;28;20283;-85
2022/12/06 10:12:18;;;;;;;16.83;7.82;;;;;;;;;;4975530;28;20031;-84
2022/12/06 10:15:07;;;;;;;19.08;8.10;;;;;;;;;;4955406;29;20050;-85
2022/12/06 10:17:40;;;;;;;17.75;7.90;;;;;;;;;;4949253;29;20035;-85
2022/12/06 10:20:09;;;;;;;14.57;7.70;;;;;;;;;;4954548;29;20070;-83
2022/12/06 10:22:54;;;;;;;17.33;7.68;;;;;;;;;;4958816;29;20051;-84
2022/12/06 10:25:24;;;;;;;14.10;6.80;;;;;;;;;;4954665;28;20051;-81
2022/12/06 10:28:05;;;;;;;14.82;8.05;;;;;;;;;;4951290;28;20328;-80
2022/12/06 10:30:33;;;;;;;17.15;8.93;;;;;;;;;;4951152;28;20047;-81
2022/12/06 10:33:10;;;;;;;14.13;8.45;;;;;;;;;;4951384;29;20078;-78
2022/12/06 10:35:49;;;;;;;17.15;8.90;;;;;;;;;;4951456;29;20055;-81
2022/12/06 10:38:18;;;;;;;14.98;9.20;;;;;;;;;;4952632;29;20100;-80
2022/12/06 10:40:50;;;;;;;15.55;9.30;;;;;;;;;;4955186;28;20508;-81
2022/12/06 10:43:26;;;;;;;17.65;9.50;;;;;;;;;;4960521;29;20047;-80
2022/12/06 10:49:17;;;;;;;17.85;9.80;;;;;;;;;;4955913;28;20054;-80
2022/12/06 10:52:07;;;;;;;17.35;9.80;;;;;;;;;;4956096;29;20063;-80
2022/12/06 10:54:33;;;;;;;16.65;9.52;;;;;;;;;;4956526;29;20063;-79
2022/12/06 10:57:03;;;;;;;18.25;10.07;;;;;;;;;;4954643;29;20523;-80
2022/12/06 10:59:43;;;;;;;18.52;9.95;;;;;;;;;;4955958;29;20051;-81
2022/12/06 11:02:28;;;;;;;19.27;10.30;;;;;;;;;;4955826;29;20055;-79
2022/12/06 11:04:57;;;;;;;20.30;9.95;;;;;;;;;;4956683;28;20055;-81
2022/12/06 11:07:24;;;;;;;19.52;10.20;;;;;;;;;;4955403;29;20554;-80
2022/12/06 11:09:52;;;;;;;17.65;9.40;;;;;;;;;;4955228;28;20047;-79
2022/12/06 11:12:34;;;;;;;20.45;10.73;;;;;;;;;;4954009;28;20051;-79
2022/12/06 11:15:20;;;;;;;20.85;11.50;;;;;;;;;;4955057;29;20055;-81
2022/12/06 11:17:49;;;;;;;17.65;8.52;;;;;;;;;;4956141;29;20051;-81
2022/12/06 11:20:16;;;;;;;21.92;11.43;;;;;;;;;;4956398;28;20055;-82
2022/12/06 11:22:52;;;;;;;22.63;11.23;;;;;;;;;;4955482;29;20057;-80
2022/12/06 11:25:18;;;;;;;21.45;11.30;;;;;;;;;;4938743;29;20054;-82
2022/12/06 11:27:53;;;;;;;23.05;11.15;;;;;;;;;;4937722;29;20055;-82
2022/12/06 11:30:20;;;;;;;19.92;10.57;;;;;;;;;;4940253;29;20059;-82
2022/12/06 11:32:48;;;;;;;21.63;10.40;;;;;;;;;;4942963;29;20421;-80
2022/12/06 11:35:17;;;;;;;24.13;11.57;;;;;;;;;;4939206;29;20056;-81
2022/12/06 11:37:44;;;;;;;23.58;10.70;;;;;;;;;;4939075;29;20507;-82
2022/12/06 11:40:40;;;;;;;20.77;10.20;;;;;;;;;;4936552;29;20055;-82
2022/12/06 11:43:08;;;;;;;23.60;10.65;;;;;;;;;;4933196;29;20485;-83
2022/12/06 11:45:36;;;;;;;19.40;9.90;;;;;;;;;;4938750;29;20055;-82
2022/12/06 11:48:12;;;;;;;19.95;10.20;;;;;;;;;;4938537;29;20054;-81
2022/12/06 11:50:40;;;;;;;19.52;10.13;;;;;;;;;;4938939;29;20058;-82
2022/12/06 11:53:14;;;;;;;21.98;10.90;;;;;;;;;;4937135;29;20490;-81
2022/12/06 11:55:45;;;;;;;20.00;10.27;;;;;;;;;;4939991;29;20048;-81
2022/12/06 11:58:31;;;;;;;21.70;10.98;;;;;;;;;;4939005;29;20047;-83
2022/12/06 12:00:57;;;;;;;;;;;;;;;;;;4939992;29;20052;-84
2022/12/06 12:03:27;;;;;;;20.15;10.25;;;;;;;;;;4939270;29;19941;-83
2022/12/06 12:06:05;;;;;;;19.95;10.30;;;;;;;;;;4940752;29;20087;-84
2022/12/06 12:08:32;;;;;;;21.00;10.60;;;;;;;;;;4955559;29;20221;-83
2022/12/06 12:10:59;;;;;;;19.10;10.10;;;;;;;;;;4938833;29;20055;-83
2022/12/06 12:13:47;;;;;;;21.55;10.70;;;;;;;;;;4937071;29;20138;-83
2022/12/06 12:16:21;;;;;;;19.65;9.75;;;;;;;;;;4951419;29;20142;-83
2022/12/06 12:18:50;;;;;;;12.20;6.28;;;;;;;;;;4943632;29;20059;-86
2022/12/06 12:21:26;;;;;;;15.98;9.43;;;;;;;;;;4958647;29;20050;-85
2022/12/06 12:23:53;;;;;;;16.17;9.10;;;;;;;;;;4972608;28;20039;-86
2022/12/06 12:26:20;;;;;;;16.90;9.18;;;;;;;;;;4946209;28;20062;-82
2022/12/06 12:29:02;;;;;;;17.48;9.80;;;;;;;;;;4938501;29;20134;-82
2022/12/06 12:31:33;;;;;;;15.93;9.05;;;;;;;;;;4938376;29;20493;-82
2022/12/06 12:34:17;;;;;;;15.75;9.30;;;;;;;;;;4938683;29;20064;-80
2022/12/06 12:36:48;;;;;;;17.25;9.65;;;;;;;;;;4943963;29;20062;-81
2022/12/06 12:39:22;;;;;;;17.45;9.55;;;;;;;;;;4945373;29;20058;-85
2022/12/06 12:41:48;;;;;;;18.85;9.57;;;;;;;;;;4960363;29;20131;-84
2022/12/06 12:44:19;;;;;;;16.60;9.30;;;;;;;;;;4943108;29;20050;-84
2022/12/06 12:47:05;;;;;;;16.50;8.90;;;;;;;;;;4952776;29;20032;-85
2022/12/06 12:49:32;;;;;;;14.65;8.15;;;;;;;;;;4953998;29;20051;-79
2022/12/06 12:52:00;;;;;;;17.42;9.25;;;;;;;;;;4947170;29;20255;-82
2022/12/06 12:54:29;;;;;;;14.77;8.85;;;;;;;;;;4943741;29;20079;-83
2022/12/06 12:56:57;;;;;;;15.88;8.57;;;;;;;;;;4946296;29;20051;-82
2022/12/06 12:59:25;;;;;;;16.05;8.73;;;;;;;;;;4947718;29;20187;-82
2022/12/06 13:02:00;;;;;;;14.32;8.02;;;;;;;;;;4938615;29;20130;-81
2022/12/06 13:04:35;;;;;;;15.67;8.67;;;;;;;;;;4938007;29;20052;-82
2022/12/06 13:07:06;;;;;;;15.65;9.02;;;;;;;;;;4939212;29;20475;-81
2022/12/06 13:10:05;;;;;;;15.95;8.88;;;;;;;;;;4938340;29;20048;-82
2022/12/06 13:12:40;;;;;;;17.65;9.07;;;;;;;;;;4916830;29;20476;-82
2022/12/06 13:15:10;;;;;;;13.48;8.45;;;;;;;;;;4940878;29;20058;-80
2022/12/06 13:17:37;;;;;;;15.15;8.73;;;;;;;;;;4938867;29;20062;-82
2022/12/06 13:20:17;;;;;;;13.52;7.93;;;;;;;;;;4936583;29;20052;-82
2022/12/06 13:22:46;;;;;;;13.43;8.20;;;;;;;;;;4942910;29;20055;-80
2022/12/06 13:25:12;;;;;;;13.90;8.13;;;;;;;;;;4947541;28;20384;-83
2022/12/06 13:27:40;;;;;;;12.82;7.75;;;;;;;;;;4952738;29;20055;-82
2022/12/06 13:30:14;;;;;;;13.05;7.70;;;;;;;;;;4951310;29;20526;-80
2022/12/06 13:32:51;;;;;;;12.48;7.05;;;;;;;;;;4952037;29;20497;-82
2022/12/06 13:35:28;;;;;;;15.48;7.47;;;;;;;;;;4954849;29;20047;-80
2022/12/06 13:37:56;;;;;;;10.93;6.38;;;;;;;;;;4954670;29;20051;-81
2022/12/06 13:40:31;;;;;;;13.85;6.60;;;;;;;;;;4953109;28;20051;-81
2022/12/06 13:43:02;;;;;;;11.68;6.68;;;;;;;;;;4952760;28;20127;-80
2022/12/06 13:45:39;;;;;;;11.43;6.72;;;;;;;;;;4954058;29;20054;-81
2022/12/06 13:48:25;;;;;;;14.18;7.60;;;;;;;;;;4955483;28;20067;-82
2022/12/06 13:50:53;;;;;;;12.00;7.10;;;;;;;;;;4955222;28;20058;-81
2022/12/06 13:53:21;;;;;;;11.38;7.03;;;;;;;;;;4952925;29;20055;-83
2022/12/06 13:55:49;;;;;;;14.88;8.10;;;;;;;;;;4954644;29;20127;-83
2022/12/06 13:58:25;;;;;;;13.00;7.10;;;;;;;;;;4954962;29;20118;-81
2022/12/06 14:00:53;;;;;;;12.48;7.72;;;;;;;;;;4956199;29;20047;-82
2022/12/06 14:03:19;;;;;;;14.10;7.75;;;;;;;;;;4955487;29;20118;-81
2022/12/06 14:05:55;;;;;;;13.52;7.30;;;;;;;;;;4955749;29;20058;-84
2022/12/06 14:08:22;;;;;;;13.70;8.20;;;;;;;;;;4953435;29;20027;-82
2022/12/06 14:10:48;;;;;;;13.00;7.55;;;;;;;;;;4954524;28;20051;-82
2022/12/06 14:13:16;;;;;;;15.10;7.78;;;;;;;;;;4949736;29;20054;-78
2022/12/06 14:15:46;;;;;;;14.48;8.00;;;;;;;;;;4954316;28;20167;-82
2022/12/06 14:18:17;;;;;;;16.27;8.75;;;;;;;;;;4954073;28;20047;-82
2022/12/06 14:20:46;;;;;;;12.95;7.90;;;;;;;;;;4953540;29;20517;-83
2022/12/06 14:23:23;;;;;;;15.52;8.75;;;;;;;;;;4952636;28;20047;-83
2022/12/06 14:25:49;;;;;;;16.38;8.80;;;;;;;;;;4955410;28;20154;-82
2022/12/06 14:28:17;;;;;;;13.93;8.23;;;;;;;;;;4955966;28;20046;-82
2022/12/06 14:30:45;;;;;;;14.40;8.25;;;;;;;;;;4956932;28;20348;-81
2022/12/06 14:33:21;;;;;;;14.38;8.45;;;;;;;;;;4954535;28;20051;-82
2022/12/06 14:35:48;;;;;;;14.10;8.18;;;;;;;;;;4955045;28;20066;-84
2022/12/06 14:38:26;;;;;;;14.18;8.65;;;;;;;;;;4951713;29;20051;-81
2022/12/06 14:43:38;;;;;;;14.05;8.07;;;;;;;;;;4950214;29;20059;-82
2022/12/06 14:46:06;;;;;;;14.80;7.53;;;;;;;;;;4954708;28;20066;-80
2022/12/06 14:51:19;;;;;;;16.23;8.25;;;;;;;;;;4952766;29;20051;-81
2022/12/06 14:53:49;;;;;;;13.63;7.78;;;;;;;;;;4953744;29;20063;-82
2022/12/06 14:56:20;;;;;;;13.73;7.60;;;;;;;;;;4955479;28;20416;-81
2022/12/06 14:58:47;;;;;;;13.90;7.63;;;;;;;;;;4968849;28;20078;-82
2022/12/06 15:01:18;;;;;;;14.93;8.52;;;;;;;;;;4954186;28;20538;-82
2022/12/06 15:03:55;;;;;;;13.38;7.53;;;;;;;;;;4954762;28;20047;-82
2022/12/06 15:06:23;;;;;;;13.95;8.13;;;;;;;;;;4954741;28;20047;-82
2022/12/06 15:08:55;;;;;;;13.10;7.97;;;;;;;;;;4960343;29;20227;-83
2022/12/06 15:14:15;;;;;;;14.57;7.80;;;;;;;;;;4954056;28;20051;-81
2022/12/06 15:16:43;;;;;;;12.00;6.82;;;;;;;;;;4956017;28;20419;-81
2022/12/06 15:19:11;;;;;;;13.50;7.53;;;;;;;;;;4955587;28;20047;-82
2022/12/06 15:21:37;;;;;;;14.23;7.63;;;;;;;;;;4955045;28;20047;-82
2022/12/06 15:24:13;;;;;;;11.55;7.22;;;;;;;;;;4945624;28;20106;-82
2022/12/06 15:26:39;;;;;;;15.38;7.88;;;;;;;;;;4955122;29;20126;-81
2022/12/06 15:29:05;;;;;;;14.55;8.13;;;;;;;;;;4956792;28;20146;-84
2022/12/06 15:31:32;;;;;;;14.32;8.02;;;;;;;;;;4958231;29;20501;-81